FKKR

Garoua International Airport

Garoua, Cameroon
METAR FKKR 221700Z 26006KT 9999 FEW020 FEW023CB 37/20 Q1006 NOSIG
Observed Flight Rules
Apr-22 @ 17:00 UTC (an hour ago) Visual Flight Rules
Wind Visibility Clouds
260° at 6 knots 10,000+ meters
  • Few at 2,000' AGL
  • Few at 2,300' AGL
Temperatures Readings
Current 37°C / 99°F
Dewpoint 20°C / 68°F
Humidity 37%
Altimeter 29.7" Hg
Pressure 1006 hPa
Elevation 244
METAR FKKR 221700Z 26006KT 9999 FEW020 FEW023CB 37/20 Q1006 NOSIG
Observed Flight Rules
Apr-22 @ 17:00 UTC
(an hour ago)
VFR
Wind Visibility
260° at 6 knots 10,000+ meters
Clouds
  • Few at 2,000' AGL
  • Few at 2,300' AGL
Temperature Dewpoint
37°C / 99°F 20°C / 68°F
Humidity Altimeter Pressure
37% 29.7" Hg 1006 hPa